METAR Data
IDs: Format: Raw Decoded Include TAF

Data at: 0013 UTC 30 May 2020

METAR for:KOXV (Knoxville Muni, IA, US)
Text:KOXV 292355Z AUTO 34010KT 10SM CLR 21/08 A3012 RMK AO2
Temperature: 21.0°C ( 70°F)
Dewpoint: 8.0°C ( 46°F) [RH = 43%]
Pressure (altimeter):30.12 inches Hg (1020.1 mb)
Winds:from the NNW (340 degrees) at 12 MPH (10 knots; 5.1 m/s)
Visibility:10 or more sm (16+ km)
Ceiling:at least 12,000 feet AGL
Clouds:sky clear below 12,000 feet AGL
QC Flag:automated observation with no human augmentation